<?xml version="1.0" encoding="UTF-8" standalone="no" ?>
<gpx xmlns="http://www.topografix.com/GPX/1/1" xmlns:xsi="http://www.w3.org/2001/XMLSchema-instance" xsi:schemaLocation="http://www.topografix.com/GPX/1/1 http://www.topografix.com/GPX/1/1/gpx.xsd" version="1.1" creator="VisuGPX - https://www.visugpx.com">
  <metadata>
    <name>La Promenade du Québécois - sart Dames Aveline</name>
  </metadata>
  <trk>
    <name><![CDATA[12184636-La Promenade du Québécois]]></name>
    <trkseg>
      <trkpt lat="50.56859" lon="4.49198">
        <ele>128</ele>
        <time>2020-10-27T20:52:57Z</time>
      </trkpt>
      <trkpt lat="50.56859" lon="4.49192">
        <ele>128</ele>
        <time>2020-10-27T20:53:00Z</time>
      </trkpt>
      <trkpt lat="50.56867" lon="4.49251">
        <ele>129</ele>
        <time>2020-10-27T20:53:31Z</time>
      </trkpt>
      <trkpt lat="50.56883" lon="4.49315">
        <ele>131</ele>
        <time>2020-10-27T20:54:06Z</time>
      </trkpt>
      <trkpt lat="50.56891" lon="4.4933">
        <ele>132</ele>
        <time>2020-10-27T20:54:16Z</time>
      </trkpt>
      <trkpt lat="50.56903" lon="4.4934">
        <ele>134</ele>
        <time>2020-10-27T20:54:27Z</time>
      </trkpt>
      <trkpt lat="50.56983" lon="4.49328">
        <ele>138</ele>
        <time>2020-10-27T20:55:31Z</time>
      </trkpt>
      <trkpt lat="50.57035" lon="4.49289">
        <ele>137</ele>
        <time>2020-10-27T20:56:17Z</time>
      </trkpt>
      <trkpt lat="50.57043" lon="4.49277">
        <ele>137</ele>
        <time>2020-10-27T20:56:26Z</time>
      </trkpt>
      <trkpt lat="50.57056" lon="4.49283">
        <ele>138</ele>
        <time>2020-10-27T20:56:37Z</time>
      </trkpt>
      <trkpt lat="50.57064" lon="4.49282">
        <ele>138</ele>
        <time>2020-10-27T20:56:43Z</time>
      </trkpt>
      <trkpt lat="50.57122" lon="4.49324">
        <ele>140</ele>
        <time>2020-10-27T20:57:34Z</time>
      </trkpt>
      <trkpt lat="50.57146" lon="4.49311">
        <ele>142</ele>
        <time>2020-10-27T20:57:55Z</time>
      </trkpt>
      <trkpt lat="50.5718" lon="4.49275">
        <ele>144</ele>
        <time>2020-10-27T20:58:27Z</time>
      </trkpt>
      <trkpt lat="50.57209" lon="4.49252">
        <ele>145</ele>
        <time>2020-10-27T20:58:53Z</time>
      </trkpt>
      <trkpt lat="50.57224" lon="4.49265">
        <ele>145</ele>
        <time>2020-10-27T20:59:07Z</time>
      </trkpt>
      <trkpt lat="50.57234" lon="4.49265">
        <ele>145</ele>
        <time>2020-10-27T20:59:15Z</time>
      </trkpt>
      <trkpt lat="50.57311" lon="4.49208">
        <ele>147</ele>
        <time>2020-10-27T21:00:23Z</time>
      </trkpt>
      <trkpt lat="50.57324" lon="4.49205">
        <ele>147</ele>
        <time>2020-10-27T21:00:34Z</time>
      </trkpt>
      <trkpt lat="50.57352" lon="4.49276">
        <ele>149</ele>
        <time>2020-10-27T21:01:16Z</time>
      </trkpt>
      <trkpt lat="50.57372" lon="4.49349">
        <ele>151</ele>
        <time>2020-10-27T21:01:57Z</time>
      </trkpt>
      <trkpt lat="50.57411" lon="4.49453">
        <ele>151</ele>
        <time>2020-10-27T21:02:58Z</time>
      </trkpt>
      <trkpt lat="50.57426" lon="4.49514">
        <ele>152</ele>
        <time>2020-10-27T21:03:31Z</time>
      </trkpt>
      <trkpt lat="50.57435" lon="4.49536">
        <ele>152</ele>
        <time>2020-10-27T21:03:45Z</time>
      </trkpt>
      <trkpt lat="50.57453" lon="4.49526">
        <ele>154</ele>
        <time>2020-10-27T21:04:00Z</time>
      </trkpt>
      <trkpt lat="50.57472" lon="4.49529">
        <ele>155</ele>
        <time>2020-10-27T21:04:15Z</time>
      </trkpt>
      <trkpt lat="50.57489" lon="4.4955">
        <ele>157</ele>
        <time>2020-10-27T21:04:33Z</time>
      </trkpt>
      <trkpt lat="50.5756" lon="4.49595">
        <ele>161</ele>
        <time>2020-10-27T21:05:34Z</time>
      </trkpt>
      <trkpt lat="50.57586" lon="4.49634">
        <ele>160</ele>
        <time>2020-10-27T21:06:03Z</time>
      </trkpt>
      <trkpt lat="50.5765" lon="4.49669">
        <ele>154</ele>
        <time>2020-10-27T21:06:57Z</time>
      </trkpt>
      <trkpt lat="50.57672" lon="4.49674">
        <ele>153</ele>
        <time>2020-10-27T21:07:15Z</time>
      </trkpt>
      <trkpt lat="50.57677" lon="4.49679">
        <ele>152</ele>
        <time>2020-10-27T21:07:19Z</time>
      </trkpt>
      <trkpt lat="50.57685" lon="4.49668">
        <ele>152</ele>
        <time>2020-10-27T21:07:28Z</time>
      </trkpt>
      <trkpt lat="50.57702" lon="4.4967">
        <ele>151</ele>
        <time>2020-10-27T21:07:41Z</time>
      </trkpt>
      <trkpt lat="50.57723" lon="4.49686">
        <ele>149</ele>
        <time>2020-10-27T21:08:00Z</time>
      </trkpt>
      <trkpt lat="50.57729" lon="4.49686">
        <ele>149</ele>
        <time>2020-10-27T21:08:05Z</time>
      </trkpt>
      <trkpt lat="50.57729" lon="4.49674">
        <ele>149</ele>
        <time>2020-10-27T21:08:11Z</time>
      </trkpt>
      <trkpt lat="50.57729" lon="4.49687">
        <ele>149</ele>
        <time>2020-10-27T21:08:18Z</time>
      </trkpt>
      <trkpt lat="50.57738" lon="4.49673">
        <ele>149</ele>
        <time>2020-10-27T21:08:28Z</time>
      </trkpt>
      <trkpt lat="50.57741" lon="4.49677">
        <ele>148</ele>
        <time>2020-10-27T21:08:31Z</time>
      </trkpt>
      <trkpt lat="50.57791" lon="4.49692">
        <ele>147</ele>
        <time>2020-10-27T21:09:12Z</time>
      </trkpt>
      <trkpt lat="50.57792" lon="4.49686">
        <ele>147</ele>
        <time>2020-10-27T21:09:15Z</time>
      </trkpt>
      <trkpt lat="50.57804" lon="4.4969">
        <ele>147</ele>
        <time>2020-10-27T21:09:25Z</time>
      </trkpt>
      <trkpt lat="50.57816" lon="4.49687">
        <ele>147</ele>
        <time>2020-10-27T21:09:34Z</time>
      </trkpt>
      <trkpt lat="50.57825" lon="4.49692">
        <ele>147</ele>
        <time>2020-10-27T21:09:42Z</time>
      </trkpt>
      <trkpt lat="50.57835" lon="4.49717">
        <ele>147</ele>
        <time>2020-10-27T21:09:57Z</time>
      </trkpt>
      <trkpt lat="50.57851" lon="4.49736">
        <ele>149</ele>
        <time>2020-10-27T21:10:13Z</time>
      </trkpt>
      <trkpt lat="50.57851" lon="4.49746">
        <ele>149</ele>
        <time>2020-10-27T21:10:18Z</time>
      </trkpt>
      <trkpt lat="50.57852" lon="4.49743">
        <ele>149</ele>
        <time>2020-10-27T21:10:20Z</time>
      </trkpt>
      <trkpt lat="50.57875" lon="4.49795">
        <ele>150</ele>
        <time>2020-10-27T21:10:52Z</time>
      </trkpt>
      <trkpt lat="50.57888" lon="4.49839">
        <ele>150</ele>
        <time>2020-10-27T21:11:17Z</time>
      </trkpt>
      <trkpt lat="50.57911" lon="4.49882">
        <ele>148</ele>
        <time>2020-10-27T21:11:45Z</time>
      </trkpt>
      <trkpt lat="50.5795" lon="4.49916">
        <ele>148</ele>
        <time>2020-10-27T21:12:21Z</time>
      </trkpt>
      <trkpt lat="50.57978" lon="4.4995">
        <ele>149</ele>
        <time>2020-10-27T21:12:49Z</time>
      </trkpt>
      <trkpt lat="50.5799" lon="4.49959">
        <ele>150</ele>
        <time>2020-10-27T21:13:00Z</time>
      </trkpt>
      <trkpt lat="50.58006" lon="4.49963">
        <ele>151</ele>
        <time>2020-10-27T21:13:13Z</time>
      </trkpt>
      <trkpt lat="50.58034" lon="4.49978">
        <ele>151</ele>
        <time>2020-10-27T21:13:37Z</time>
      </trkpt>
      <trkpt lat="50.58043" lon="4.49986">
        <ele>151</ele>
        <time>2020-10-27T21:13:45Z</time>
      </trkpt>
      <trkpt lat="50.58066" lon="4.50021">
        <ele>150</ele>
        <time>2020-10-27T21:14:11Z</time>
      </trkpt>
      <trkpt lat="50.5808" lon="4.50014">
        <ele>150</ele>
        <time>2020-10-27T21:14:22Z</time>
      </trkpt>
      <trkpt lat="50.58115" lon="4.49979">
        <ele>151</ele>
        <time>2020-10-27T21:14:56Z</time>
      </trkpt>
      <trkpt lat="50.58124" lon="4.49965">
        <ele>151</ele>
        <time>2020-10-27T21:15:06Z</time>
      </trkpt>
      <trkpt lat="50.58133" lon="4.49965">
        <ele>150</ele>
        <time>2020-10-27T21:15:13Z</time>
      </trkpt>
      <trkpt lat="50.58143" lon="4.49953">
        <ele>150</ele>
        <time>2020-10-27T21:15:23Z</time>
      </trkpt>
      <trkpt lat="50.58152" lon="4.4995">
        <ele>150</ele>
        <time>2020-10-27T21:15:30Z</time>
      </trkpt>
      <trkpt lat="50.58155" lon="4.49942">
        <ele>150</ele>
        <time>2020-10-27T21:15:35Z</time>
      </trkpt>
      <trkpt lat="50.58191" lon="4.49928">
        <ele>148</ele>
        <time>2020-10-27T21:16:05Z</time>
      </trkpt>
      <trkpt lat="50.58223" lon="4.49936">
        <ele>146</ele>
        <time>2020-10-27T21:16:31Z</time>
      </trkpt>
      <trkpt lat="50.58241" lon="4.49934">
        <ele>145</ele>
        <time>2020-10-27T21:16:45Z</time>
      </trkpt>
      <trkpt lat="50.58261" lon="4.49941">
        <ele>144</ele>
        <time>2020-10-27T21:17:02Z</time>
      </trkpt>
      <trkpt lat="50.58288" lon="4.4994">
        <ele>144</ele>
        <time>2020-10-27T21:17:23Z</time>
      </trkpt>
      <trkpt lat="50.58299" lon="4.49924">
        <ele>142</ele>
        <time>2020-10-27T21:17:35Z</time>
      </trkpt>
      <trkpt lat="50.58331" lon="4.49893">
        <ele>139</ele>
        <time>2020-10-27T21:18:05Z</time>
      </trkpt>
      <trkpt lat="50.58342" lon="4.49878">
        <ele>138</ele>
        <time>2020-10-27T21:18:17Z</time>
      </trkpt>
      <trkpt lat="50.58342" lon="4.49872">
        <ele>137</ele>
        <time>2020-10-27T21:18:20Z</time>
      </trkpt>
      <trkpt lat="50.58345" lon="4.49875">
        <ele>137</ele>
        <time>2020-10-27T21:18:23Z</time>
      </trkpt>
      <trkpt lat="50.58356" lon="4.49867">
        <ele>136</ele>
        <time>2020-10-27T21:18:32Z</time>
      </trkpt>
      <trkpt lat="50.58387" lon="4.49838">
        <ele>130</ele>
        <time>2020-10-27T21:19:01Z</time>
      </trkpt>
      <trkpt lat="50.58411" lon="4.49805">
        <ele>125</ele>
        <time>2020-10-27T21:19:27Z</time>
      </trkpt>
      <trkpt lat="50.58422" lon="4.49797">
        <ele>124</ele>
        <time>2020-10-27T21:19:37Z</time>
      </trkpt>
      <trkpt lat="50.58446" lon="4.49761">
        <ele>126</ele>
        <time>2020-10-27T21:20:03Z</time>
      </trkpt>
      <trkpt lat="50.5849" lon="4.49649">
        <ele>124</ele>
        <time>2020-10-27T21:21:10Z</time>
      </trkpt>
      <trkpt lat="50.5851" lon="4.49577">
        <ele>121</ele>
        <time>2020-10-27T21:21:50Z</time>
      </trkpt>
      <trkpt lat="50.58527" lon="4.49564">
        <ele>121</ele>
        <time>2020-10-27T21:22:05Z</time>
      </trkpt>
      <trkpt lat="50.58557" lon="4.49563">
        <ele>124</ele>
        <time>2020-10-27T21:22:29Z</time>
      </trkpt>
      <trkpt lat="50.58572" lon="4.49556">
        <ele>124</ele>
        <time>2020-10-27T21:22:42Z</time>
      </trkpt>
      <trkpt lat="50.5859" lon="4.49558">
        <ele>126</ele>
        <time>2020-10-27T21:22:56Z</time>
      </trkpt>
      <trkpt lat="50.58654" lon="4.49537">
        <ele>124</ele>
        <time>2020-10-27T21:23:48Z</time>
      </trkpt>
      <trkpt lat="50.58665" lon="4.49526">
        <ele>123</ele>
        <time>2020-10-27T21:23:59Z</time>
      </trkpt>
      <trkpt lat="50.58687" lon="4.49485">
        <ele>119</ele>
        <time>2020-10-27T21:24:26Z</time>
      </trkpt>
      <trkpt lat="50.58701" lon="4.49469">
        <ele>118</ele>
        <time>2020-10-27T21:24:40Z</time>
      </trkpt>
      <trkpt lat="50.58739" lon="4.49445">
        <ele>117</ele>
        <time>2020-10-27T21:25:13Z</time>
      </trkpt>
      <trkpt lat="50.58748" lon="4.4943">
        <ele>115</ele>
        <time>2020-10-27T21:25:23Z</time>
      </trkpt>
      <trkpt lat="50.58765" lon="4.49423">
        <ele>115</ele>
        <time>2020-10-27T21:25:37Z</time>
      </trkpt>
      <trkpt lat="50.58789" lon="4.49394">
        <ele>113</ele>
        <time>2020-10-27T21:26:02Z</time>
      </trkpt>
      <trkpt lat="50.58806" lon="4.49385">
        <ele>112</ele>
        <time>2020-10-27T21:26:16Z</time>
      </trkpt>
      <trkpt lat="50.58815" lon="4.49385">
        <ele>112</ele>
        <time>2020-10-27T21:26:23Z</time>
      </trkpt>
      <trkpt lat="50.58851" lon="4.49407">
        <ele>112</ele>
        <time>2020-10-27T21:26:54Z</time>
      </trkpt>
      <trkpt lat="50.58865" lon="4.49433">
        <ele>114</ele>
        <time>2020-10-27T21:27:11Z</time>
      </trkpt>
      <trkpt lat="50.58883" lon="4.49482">
        <ele>119</ele>
        <time>2020-10-27T21:27:40Z</time>
      </trkpt>
      <trkpt lat="50.58903" lon="4.49501">
        <ele>120</ele>
        <time>2020-10-27T21:27:59Z</time>
      </trkpt>
      <trkpt lat="50.58933" lon="4.49541">
        <ele>121</ele>
        <time>2020-10-27T21:28:30Z</time>
      </trkpt>
      <trkpt lat="50.58942" lon="4.49547">
        <ele>121</ele>
        <time>2020-10-27T21:28:38Z</time>
      </trkpt>
      <trkpt lat="50.58948" lon="4.4956">
        <ele>121</ele>
        <time>2020-10-27T21:28:46Z</time>
      </trkpt>
      <trkpt lat="50.58969" lon="4.49588">
        <ele>121</ele>
        <time>2020-10-27T21:29:08Z</time>
      </trkpt>
      <trkpt lat="50.58986" lon="4.49603">
        <ele>120</ele>
        <time>2020-10-27T21:29:24Z</time>
      </trkpt>
      <trkpt lat="50.59025" lon="4.49661">
        <ele>121</ele>
        <time>2020-10-27T21:30:07Z</time>
      </trkpt>
      <trkpt lat="50.59064" lon="4.49708">
        <ele>120</ele>
        <time>2020-10-27T21:30:46Z</time>
      </trkpt>
      <trkpt lat="50.59087" lon="4.49728">
        <ele>118</ele>
        <time>2020-10-27T21:31:07Z</time>
      </trkpt>
      <trkpt lat="50.59127" lon="4.49782">
        <ele>115</ele>
        <time>2020-10-27T21:31:49Z</time>
      </trkpt>
      <trkpt lat="50.59136" lon="4.49799">
        <ele>114</ele>
        <time>2020-10-27T21:32:01Z</time>
      </trkpt>
      <trkpt lat="50.59142" lon="4.49844">
        <ele>113</ele>
        <time>2020-10-27T21:32:24Z</time>
      </trkpt>
      <trkpt lat="50.59164" lon="4.49916">
        <ele>109</ele>
        <time>2020-10-27T21:33:05Z</time>
      </trkpt>
      <trkpt lat="50.59176" lon="4.49937">
        <ele>110</ele>
        <time>2020-10-27T21:33:19Z</time>
      </trkpt>
      <trkpt lat="50.59185" lon="4.49969">
        <ele>113</ele>
        <time>2020-10-27T21:33:37Z</time>
      </trkpt>
      <trkpt lat="50.59191" lon="4.49977">
        <ele>114</ele>
        <time>2020-10-27T21:33:43Z</time>
      </trkpt>
      <trkpt lat="50.59194" lon="4.49973">
        <ele>113</ele>
        <time>2020-10-27T21:33:46Z</time>
      </trkpt>
      <trkpt lat="50.59199" lon="4.49993">
        <ele>115</ele>
        <time>2020-10-27T21:33:57Z</time>
      </trkpt>
      <trkpt lat="50.59212" lon="4.50014">
        <ele>117</ele>
        <time>2020-10-27T21:34:12Z</time>
      </trkpt>
      <trkpt lat="50.59223" lon="4.50048">
        <ele>119</ele>
        <time>2020-10-27T21:34:32Z</time>
      </trkpt>
      <trkpt lat="50.5924" lon="4.50072">
        <ele>120</ele>
        <time>2020-10-27T21:34:50Z</time>
      </trkpt>
      <trkpt lat="50.59253" lon="4.50112">
        <ele>120</ele>
        <time>2020-10-27T21:35:13Z</time>
      </trkpt>
      <trkpt lat="50.59263" lon="4.50121">
        <ele>120</ele>
        <time>2020-10-27T21:35:22Z</time>
      </trkpt>
      <trkpt lat="50.59286" lon="4.50157">
        <ele>120</ele>
        <time>2020-10-27T21:35:48Z</time>
      </trkpt>
      <trkpt lat="50.5931" lon="4.50174">
        <ele>119</ele>
        <time>2020-10-27T21:36:09Z</time>
      </trkpt>
      <trkpt lat="50.59339" lon="4.50188">
        <ele>118</ele>
        <time>2020-10-27T21:36:33Z</time>
      </trkpt>
      <trkpt lat="50.59366" lon="4.50218">
        <ele>118</ele>
        <time>2020-10-27T21:37:00Z</time>
      </trkpt>
      <trkpt lat="50.59412" lon="4.50245">
        <ele>118</ele>
        <time>2020-10-27T21:37:39Z</time>
      </trkpt>
      <trkpt lat="50.59429" lon="4.50266">
        <ele>118</ele>
        <time>2020-10-27T21:37:56Z</time>
      </trkpt>
      <trkpt lat="50.5945" lon="4.50277">
        <ele>116</ele>
        <time>2020-10-27T21:38:14Z</time>
      </trkpt>
      <trkpt lat="50.59462" lon="4.50291">
        <ele>117</ele>
        <time>2020-10-27T21:38:26Z</time>
      </trkpt>
      <trkpt lat="50.59475" lon="4.50297">
        <ele>116</ele>
        <time>2020-10-27T21:38:37Z</time>
      </trkpt>
      <trkpt lat="50.59492" lon="4.50313">
        <ele>117</ele>
        <time>2020-10-27T21:38:53Z</time>
      </trkpt>
      <trkpt lat="50.59501" lon="4.5031">
        <ele>116</ele>
        <time>2020-10-27T21:39:00Z</time>
      </trkpt>
      <trkpt lat="50.59512" lon="4.50299">
        <ele>115</ele>
        <time>2020-10-27T21:39:10Z</time>
      </trkpt>
      <trkpt lat="50.59525" lon="4.50259">
        <ele>110</ele>
        <time>2020-10-27T21:39:33Z</time>
      </trkpt>
      <trkpt lat="50.59556" lon="4.50248">
        <ele>110</ele>
        <time>2020-10-27T21:39:59Z</time>
      </trkpt>
      <trkpt lat="50.59576" lon="4.50253">
        <ele>111</ele>
        <time>2020-10-27T21:40:15Z</time>
      </trkpt>
      <trkpt lat="50.59609" lon="4.50285">
        <ele>114</ele>
        <time>2020-10-27T21:40:46Z</time>
      </trkpt>
      <trkpt lat="50.59673" lon="4.50314">
        <ele>110</ele>
        <time>2020-10-27T21:41:39Z</time>
      </trkpt>
      <trkpt lat="50.59704" lon="4.5036">
        <ele>112</ele>
        <time>2020-10-27T21:42:13Z</time>
      </trkpt>
      <trkpt lat="50.59721" lon="4.50371">
        <ele>111</ele>
        <time>2020-10-27T21:42:28Z</time>
      </trkpt>
      <trkpt lat="50.5973" lon="4.50385">
        <ele>111</ele>
        <time>2020-10-27T21:42:38Z</time>
      </trkpt>
      <trkpt lat="50.59749" lon="4.50431">
        <ele>113</ele>
        <time>2020-10-27T21:43:06Z</time>
      </trkpt>
      <trkpt lat="50.5975" lon="4.5046">
        <ele>118</ele>
        <time>2020-10-27T21:43:21Z</time>
      </trkpt>
      <trkpt lat="50.5974" lon="4.50506">
        <ele>125</ele>
        <time>2020-10-27T21:43:46Z</time>
      </trkpt>
      <trkpt lat="50.59751" lon="4.50559">
        <ele>128</ele>
        <time>2020-10-27T21:44:14Z</time>
      </trkpt>
      <trkpt lat="50.59751" lon="4.5059">
        <ele>130</ele>
        <time>2020-10-27T21:44:30Z</time>
      </trkpt>
      <trkpt lat="50.59731" lon="4.50642">
        <ele>132</ele>
        <time>2020-10-27T21:45:01Z</time>
      </trkpt>
      <trkpt lat="50.59723" lon="4.50696">
        <ele>135</ele>
        <time>2020-10-27T21:45:29Z</time>
      </trkpt>
      <trkpt lat="50.59714" lon="4.5072">
        <ele>137</ele>
        <time>2020-10-27T21:45:43Z</time>
      </trkpt>
      <trkpt lat="50.59709" lon="4.50756">
        <ele>139</ele>
        <time>2020-10-27T21:46:02Z</time>
      </trkpt>
      <trkpt lat="50.59696" lon="4.50798">
        <ele>142</ele>
        <time>2020-10-27T21:46:25Z</time>
      </trkpt>
      <trkpt lat="50.59692" lon="4.50821">
        <ele>143</ele>
        <time>2020-10-27T21:46:38Z</time>
      </trkpt>
      <trkpt lat="50.59695" lon="4.50837">
        <ele>143</ele>
        <time>2020-10-27T21:46:46Z</time>
      </trkpt>
      <trkpt lat="50.59683" lon="4.50858">
        <ele>145</ele>
        <time>2020-10-27T21:47:00Z</time>
      </trkpt>
      <trkpt lat="50.59667" lon="4.50902">
        <ele>146</ele>
        <time>2020-10-27T21:47:26Z</time>
      </trkpt>
      <trkpt lat="50.59624" lon="4.51068">
        <ele>151</ele>
        <time>2020-10-27T21:48:57Z</time>
      </trkpt>
      <trkpt lat="50.59599" lon="4.51138">
        <ele>151</ele>
        <time>2020-10-27T21:49:38Z</time>
      </trkpt>
      <trkpt lat="50.59591" lon="4.51181">
        <ele>151</ele>
        <time>2020-10-27T21:50:01Z</time>
      </trkpt>
      <trkpt lat="50.59562" lon="4.51274">
        <ele>146</ele>
        <time>2020-10-27T21:50:54Z</time>
      </trkpt>
      <trkpt lat="50.59557" lon="4.51327">
        <ele>144</ele>
        <time>2020-10-27T21:51:21Z</time>
      </trkpt>
      <trkpt lat="50.59551" lon="4.51349">
        <ele>144</ele>
        <time>2020-10-27T21:51:33Z</time>
      </trkpt>
      <trkpt lat="50.59533" lon="4.51381">
        <ele>143</ele>
        <time>2020-10-27T21:51:55Z</time>
      </trkpt>
      <trkpt lat="50.59521" lon="4.51383">
        <ele>143</ele>
        <time>2020-10-27T21:52:04Z</time>
      </trkpt>
      <trkpt lat="50.59497" lon="4.51413">
        <ele>143</ele>
        <time>2020-10-27T21:52:29Z</time>
      </trkpt>
      <trkpt lat="50.59472" lon="4.51471">
        <ele>145</ele>
        <time>2020-10-27T21:53:04Z</time>
      </trkpt>
      <trkpt lat="50.59457" lon="4.51549">
        <ele>147</ele>
        <time>2020-10-27T21:53:46Z</time>
      </trkpt>
      <trkpt lat="50.59461" lon="4.51587">
        <ele>148</ele>
        <time>2020-10-27T21:54:05Z</time>
      </trkpt>
      <trkpt lat="50.59456" lon="4.51593">
        <ele>148</ele>
        <time>2020-10-27T21:54:11Z</time>
      </trkpt>
      <trkpt lat="50.59446" lon="4.51636">
        <ele>149</ele>
        <time>2020-10-27T21:54:34Z</time>
      </trkpt>
      <trkpt lat="50.59438" lon="4.51652">
        <ele>150</ele>
        <time>2020-10-27T21:54:44Z</time>
      </trkpt>
      <trkpt lat="50.59432" lon="4.51684">
        <ele>151</ele>
        <time>2020-10-27T21:55:01Z</time>
      </trkpt>
      <trkpt lat="50.59433" lon="4.5172">
        <ele>151</ele>
        <time>2020-10-27T21:55:19Z</time>
      </trkpt>
      <trkpt lat="50.59421" lon="4.51844">
        <ele>152</ele>
        <time>2020-10-27T21:56:23Z</time>
      </trkpt>
      <trkpt lat="50.59393" lon="4.51951">
        <ele>151</ele>
        <time>2020-10-27T21:57:22Z</time>
      </trkpt>
      <trkpt lat="50.59335" lon="4.5212">
        <ele>143</ele>
        <time>2020-10-27T21:59:00Z</time>
      </trkpt>
      <trkpt lat="50.59317" lon="4.52155">
        <ele>139</ele>
        <time>2020-10-27T21:59:23Z</time>
      </trkpt>
      <trkpt lat="50.59297" lon="4.52181">
        <ele>137</ele>
        <time>2020-10-27T21:59:43Z</time>
      </trkpt>
      <trkpt lat="50.59294" lon="4.52198">
        <ele>137</ele>
        <time>2020-10-27T21:59:52Z</time>
      </trkpt>
      <trkpt lat="50.59284" lon="4.52211">
        <ele>136</ele>
        <time>2020-10-27T22:00:03Z</time>
      </trkpt>
      <trkpt lat="50.59276" lon="4.52215">
        <ele>135</ele>
        <time>2020-10-27T22:00:09Z</time>
      </trkpt>
      <trkpt lat="50.59254" lon="4.52257">
        <ele>132</ele>
        <time>2020-10-27T22:00:37Z</time>
      </trkpt>
      <trkpt lat="50.59221" lon="4.52293">
        <ele>129</ele>
        <time>2020-10-27T22:01:09Z</time>
      </trkpt>
      <trkpt lat="50.59214" lon="4.52327">
        <ele>128</ele>
        <time>2020-10-27T22:01:27Z</time>
      </trkpt>
      <trkpt lat="50.59196" lon="4.52364">
        <ele>126</ele>
        <time>2020-10-27T22:01:51Z</time>
      </trkpt>
      <trkpt lat="50.59144" lon="4.52412">
        <ele>124</ele>
        <time>2020-10-27T22:02:39Z</time>
      </trkpt>
      <trkpt lat="50.59137" lon="4.52424">
        <ele>123</ele>
        <time>2020-10-27T22:02:48Z</time>
      </trkpt>
      <trkpt lat="50.59113" lon="4.52448">
        <ele>121</ele>
        <time>2020-10-27T22:03:10Z</time>
      </trkpt>
      <trkpt lat="50.59098" lon="4.52483">
        <ele>118</ele>
        <time>2020-10-27T22:03:32Z</time>
      </trkpt>
      <trkpt lat="50.59072" lon="4.52514">
        <ele>116</ele>
        <time>2020-10-27T22:03:58Z</time>
      </trkpt>
      <trkpt lat="50.59052" lon="4.52549">
        <ele>117</ele>
        <time>2020-10-27T22:04:22Z</time>
      </trkpt>
      <trkpt lat="50.59045" lon="4.52622">
        <ele>115</ele>
        <time>2020-10-27T22:04:59Z</time>
      </trkpt>
      <trkpt lat="50.59048" lon="4.52651">
        <ele>113</ele>
        <time>2020-10-27T22:05:14Z</time>
      </trkpt>
      <trkpt lat="50.59043" lon="4.52669">
        <ele>113</ele>
        <time>2020-10-27T22:05:24Z</time>
      </trkpt>
      <trkpt lat="50.5903" lon="4.52667">
        <ele>114</ele>
        <time>2020-10-27T22:05:35Z</time>
      </trkpt>
      <trkpt lat="50.59019" lon="4.52657">
        <ele>115</ele>
        <time>2020-10-27T22:05:45Z</time>
      </trkpt>
      <trkpt lat="50.59007" lon="4.52637">
        <ele>117</ele>
        <time>2020-10-27T22:05:59Z</time>
      </trkpt>
      <trkpt lat="50.58987" lon="4.52561">
        <ele>119</ele>
        <time>2020-10-27T22:06:41Z</time>
      </trkpt>
      <trkpt lat="50.58988" lon="4.52541">
        <ele>119</ele>
        <time>2020-10-27T22:06:51Z</time>
      </trkpt>
      <trkpt lat="50.58964" lon="4.52488">
        <ele>121</ele>
        <time>2020-10-27T22:07:24Z</time>
      </trkpt>
      <trkpt lat="50.58956" lon="4.52451">
        <ele>121</ele>
        <time>2020-10-27T22:07:44Z</time>
      </trkpt>
      <trkpt lat="50.58943" lon="4.52437">
        <ele>122</ele>
        <time>2020-10-27T22:07:57Z</time>
      </trkpt>
      <trkpt lat="50.5893" lon="4.52414">
        <ele>123</ele>
        <time>2020-10-27T22:08:12Z</time>
      </trkpt>
      <trkpt lat="50.58913" lon="4.52343">
        <ele>126</ele>
        <time>2020-10-27T22:08:51Z</time>
      </trkpt>
      <trkpt lat="50.58891" lon="4.52289">
        <ele>127</ele>
        <time>2020-10-27T22:09:23Z</time>
      </trkpt>
      <trkpt lat="50.58883" lon="4.52253">
        <ele>128</ele>
        <time>2020-10-27T22:09:43Z</time>
      </trkpt>
      <trkpt lat="50.58851" lon="4.52187">
        <ele>131</ele>
        <time>2020-10-27T22:10:25Z</time>
      </trkpt>
      <trkpt lat="50.58831" lon="4.52103">
        <ele>131</ele>
        <time>2020-10-27T22:11:11Z</time>
      </trkpt>
      <trkpt lat="50.58828" lon="4.52068">
        <ele>130</ele>
        <time>2020-10-27T22:11:29Z</time>
      </trkpt>
      <trkpt lat="50.58819" lon="4.5203">
        <ele>129</ele>
        <time>2020-10-27T22:11:49Z</time>
      </trkpt>
      <trkpt lat="50.58821" lon="4.51999">
        <ele>128</ele>
        <time>2020-10-27T22:12:05Z</time>
      </trkpt>
      <trkpt lat="50.58825" lon="4.5199">
        <ele>129</ele>
        <time>2020-10-27T22:12:11Z</time>
      </trkpt>
      <trkpt lat="50.58821" lon="4.51949">
        <ele>129</ele>
        <time>2020-10-27T22:12:32Z</time>
      </trkpt>
      <trkpt lat="50.58827" lon="4.51929">
        <ele>129</ele>
        <time>2020-10-27T22:12:43Z</time>
      </trkpt>
      <trkpt lat="50.58826" lon="4.51904">
        <ele>130</ele>
        <time>2020-10-27T22:12:56Z</time>
      </trkpt>
      <trkpt lat="50.58781" lon="4.51756">
        <ele>131</ele>
        <time>2020-10-27T22:14:19Z</time>
      </trkpt>
      <trkpt lat="50.58754" lon="4.51691">
        <ele>131</ele>
        <time>2020-10-27T22:14:59Z</time>
      </trkpt>
      <trkpt lat="50.58694" lon="4.515">
        <ele>135</ele>
        <time>2020-10-27T22:16:47Z</time>
      </trkpt>
      <trkpt lat="50.5868" lon="4.51474">
        <ele>134</ele>
        <time>2020-10-27T22:17:04Z</time>
      </trkpt>
      <trkpt lat="50.58651" lon="4.51385">
        <ele>133</ele>
        <time>2020-10-27T22:17:55Z</time>
      </trkpt>
      <trkpt lat="50.5864" lon="4.51365">
        <ele>132</ele>
        <time>2020-10-27T22:18:09Z</time>
      </trkpt>
      <trkpt lat="50.58612" lon="4.5133">
        <ele>130</ele>
        <time>2020-10-27T22:18:37Z</time>
      </trkpt>
      <trkpt lat="50.58545" lon="4.51217">
        <ele>131</ele>
        <time>2020-10-27T22:19:56Z</time>
      </trkpt>
      <trkpt lat="50.58529" lon="4.512">
        <ele>131</ele>
        <time>2020-10-27T22:20:11Z</time>
      </trkpt>
      <trkpt lat="50.58518" lon="4.51173">
        <ele>131</ele>
        <time>2020-10-27T22:20:27Z</time>
      </trkpt>
      <trkpt lat="50.58486" lon="4.51133">
        <ele>131</ele>
        <time>2020-10-27T22:21:00Z</time>
      </trkpt>
      <trkpt lat="50.58432" lon="4.51111">
        <ele>132</ele>
        <time>2020-10-27T22:21:45Z</time>
      </trkpt>
      <trkpt lat="50.58396" lon="4.51087">
        <ele>132</ele>
        <time>2020-10-27T22:22:16Z</time>
      </trkpt>
      <trkpt lat="50.58363" lon="4.51057">
        <ele>133</ele>
        <time>2020-10-27T22:22:47Z</time>
      </trkpt>
      <trkpt lat="50.58354" lon="4.51054">
        <ele>134</ele>
        <time>2020-10-27T22:22:54Z</time>
      </trkpt>
      <trkpt lat="50.5834" lon="4.51065">
        <ele>134</ele>
        <time>2020-10-27T22:23:07Z</time>
      </trkpt>
      <trkpt lat="50.58308" lon="4.51104">
        <ele>136</ele>
        <time>2020-10-27T22:23:39Z</time>
      </trkpt>
      <trkpt lat="50.58243" lon="4.5116">
        <ele>138</ele>
        <time>2020-10-27T22:24:38Z</time>
      </trkpt>
      <trkpt lat="50.58228" lon="4.5118">
        <ele>139</ele>
        <time>2020-10-27T22:24:54Z</time>
      </trkpt>
      <trkpt lat="50.58206" lon="4.51199">
        <ele>140</ele>
        <time>2020-10-27T22:25:14Z</time>
      </trkpt>
      <trkpt lat="50.58185" lon="4.51228">
        <ele>142</ele>
        <time>2020-10-27T22:25:36Z</time>
      </trkpt>
      <trkpt lat="50.58176" lon="4.51231">
        <ele>142</ele>
        <time>2020-10-27T22:25:44Z</time>
      </trkpt>
      <trkpt lat="50.58155" lon="4.51269">
        <ele>143</ele>
        <time>2020-10-27T22:26:09Z</time>
      </trkpt>
      <trkpt lat="50.58123" lon="4.51307">
        <ele>144</ele>
        <time>2020-10-27T22:26:42Z</time>
      </trkpt>
      <trkpt lat="50.58109" lon="4.51274">
        <ele>143</ele>
        <time>2020-10-27T22:27:02Z</time>
      </trkpt>
      <trkpt lat="50.57958" lon="4.51011">
        <ele>144</ele>
        <time>2020-10-27T22:30:02Z</time>
      </trkpt>
      <trkpt lat="50.57942" lon="4.50975">
        <ele>144</ele>
        <time>2020-10-27T22:30:24Z</time>
      </trkpt>
      <trkpt lat="50.57876" lon="4.50867">
        <ele>144</ele>
        <time>2020-10-27T22:31:41Z</time>
      </trkpt>
      <trkpt lat="50.57811" lon="4.50734">
        <ele>145</ele>
        <time>2020-10-27T22:33:06Z</time>
      </trkpt>
      <trkpt lat="50.57777" lon="4.50636">
        <ele>146</ele>
        <time>2020-10-27T22:34:03Z</time>
      </trkpt>
      <trkpt lat="50.57749" lon="4.50597">
        <ele>146</ele>
        <time>2020-10-27T22:34:33Z</time>
      </trkpt>
      <trkpt lat="50.57645" lon="4.50403">
        <ele>148</ele>
        <time>2020-10-27T22:36:42Z</time>
      </trkpt>
      <trkpt lat="50.57638" lon="4.50403">
        <ele>148</ele>
        <time>2020-10-27T22:36:47Z</time>
      </trkpt>
      <trkpt lat="50.57629" lon="4.50414">
        <ele>148</ele>
        <time>2020-10-27T22:36:56Z</time>
      </trkpt>
      <trkpt lat="50.57635" lon="4.50404">
        <ele>148</ele>
        <time>2020-10-27T22:37:03Z</time>
      </trkpt>
      <trkpt lat="50.57636" lon="4.50391">
        <ele>148</ele>
        <time>2020-10-27T22:37:10Z</time>
      </trkpt>
      <trkpt lat="50.57624" lon="4.50354">
        <ele>148</ele>
        <time>2020-10-27T22:37:31Z</time>
      </trkpt>
      <trkpt lat="50.57554" lon="4.50226">
        <ele>149</ele>
        <time>2020-10-27T22:38:57Z</time>
      </trkpt>
      <trkpt lat="50.57538" lon="4.5018">
        <ele>149</ele>
        <time>2020-10-27T22:39:24Z</time>
      </trkpt>
      <trkpt lat="50.57496" lon="4.50106">
        <ele>148</ele>
        <time>2020-10-27T22:40:14Z</time>
      </trkpt>
      <trkpt lat="50.57464" lon="4.50039">
        <ele>149</ele>
        <time>2020-10-27T22:40:57Z</time>
      </trkpt>
      <trkpt lat="50.57446" lon="4.49985">
        <ele>149</ele>
        <time>2020-10-27T22:41:28Z</time>
      </trkpt>
      <trkpt lat="50.57433" lon="4.49963">
        <ele>149</ele>
        <time>2020-10-27T22:41:43Z</time>
      </trkpt>
      <trkpt lat="50.57412" lon="4.49886">
        <ele>148</ele>
        <time>2020-10-27T22:42:26Z</time>
      </trkpt>
      <trkpt lat="50.57374" lon="4.49792">
        <ele>148</ele>
        <time>2020-10-27T22:43:22Z</time>
      </trkpt>
      <trkpt lat="50.57369" lon="4.49764">
        <ele>147</ele>
        <time>2020-10-27T22:43:37Z</time>
      </trkpt>
      <trkpt lat="50.57317" lon="4.49648">
        <ele>148</ele>
        <time>2020-10-27T22:44:49Z</time>
      </trkpt>
      <trkpt lat="50.57299" lon="4.49586">
        <ele>146</ele>
        <time>2020-10-27T22:45:24Z</time>
      </trkpt>
      <trkpt lat="50.57273" lon="4.49517">
        <ele>146</ele>
        <time>2020-10-27T22:46:05Z</time>
      </trkpt>
      <trkpt lat="50.57267" lon="4.49515">
        <ele>146</ele>
        <time>2020-10-27T22:46:10Z</time>
      </trkpt>
      <trkpt lat="50.57262" lon="4.49518">
        <ele>146</ele>
        <time>2020-10-27T22:46:14Z</time>
      </trkpt>
      <trkpt lat="50.57226" lon="4.4955">
        <ele>144</ele>
        <time>2020-10-27T22:46:47Z</time>
      </trkpt>
      <trkpt lat="50.57219" lon="4.49552">
        <ele>144</ele>
        <time>2020-10-27T22:46:53Z</time>
      </trkpt>
      <trkpt lat="50.57207" lon="4.49546">
        <ele>143</ele>
        <time>2020-10-27T22:47:03Z</time>
      </trkpt>
      <trkpt lat="50.57207" lon="4.49553">
        <ele>143</ele>
        <time>2020-10-27T22:47:06Z</time>
      </trkpt>
      <trkpt lat="50.572" lon="4.49533">
        <ele>143</ele>
        <time>2020-10-27T22:47:18Z</time>
      </trkpt>
      <trkpt lat="50.57156" lon="4.4947">
        <ele>141</ele>
        <time>2020-10-27T22:48:06Z</time>
      </trkpt>
      <trkpt lat="50.5714" lon="4.49428">
        <ele>141</ele>
        <time>2020-10-27T22:48:31Z</time>
      </trkpt>
      <trkpt lat="50.57119" lon="4.49389">
        <ele>140</ele>
        <time>2020-10-27T22:48:57Z</time>
      </trkpt>
      <trkpt lat="50.57109" lon="4.49357">
        <ele>139</ele>
        <time>2020-10-27T22:49:15Z</time>
      </trkpt>
      <trkpt lat="50.57108" lon="4.49342">
        <ele>139</ele>
        <time>2020-10-27T22:49:22Z</time>
      </trkpt>
      <trkpt lat="50.57114" lon="4.4933">
        <ele>140</ele>
        <time>2020-10-27T22:49:30Z</time>
      </trkpt>
      <trkpt lat="50.5711" lon="4.49316">
        <ele>140</ele>
        <time>2020-10-27T22:49:38Z</time>
      </trkpt>
      <trkpt lat="50.57072" lon="4.49279">
        <ele>138</ele>
        <time>2020-10-27T22:50:14Z</time>
      </trkpt>
      <trkpt lat="50.57065" lon="4.49214">
        <ele>139</ele>
        <time>2020-10-27T22:50:47Z</time>
      </trkpt>
      <trkpt lat="50.57067" lon="4.49184">
        <ele>139</ele>
        <time>2020-10-27T22:51:03Z</time>
      </trkpt>
      <trkpt lat="50.57063" lon="4.49138">
        <ele>139</ele>
        <time>2020-10-27T22:51:26Z</time>
      </trkpt>
      <trkpt lat="50.57053" lon="4.49124">
        <ele>138</ele>
        <time>2020-10-27T22:51:37Z</time>
      </trkpt>
      <trkpt lat="50.57018" lon="4.49097">
        <ele>135</ele>
        <time>2020-10-27T22:52:08Z</time>
      </trkpt>
      <trkpt lat="50.56999" lon="4.49054">
        <ele>134</ele>
        <time>2020-10-27T22:52:35Z</time>
      </trkpt>
      <trkpt lat="50.56973" lon="4.49013">
        <ele>134</ele>
        <time>2020-10-27T22:53:04Z</time>
      </trkpt>
      <trkpt lat="50.56958" lon="4.49015">
        <ele>134</ele>
        <time>2020-10-27T22:53:16Z</time>
      </trkpt>
      <trkpt lat="50.56949" lon="4.49022">
        <ele>134</ele>
        <time>2020-10-27T22:53:24Z</time>
      </trkpt>
      <trkpt lat="50.56934" lon="4.4905">
        <ele>133</ele>
        <time>2020-10-27T22:53:43Z</time>
      </trkpt>
      <trkpt lat="50.56918" lon="4.4907">
        <ele>133</ele>
        <time>2020-10-27T22:53:59Z</time>
      </trkpt>
      <trkpt lat="50.56893" lon="4.49143">
        <ele>129</ele>
        <time>2020-10-27T22:54:42Z</time>
      </trkpt>
      <trkpt lat="50.56857" lon="4.49159">
        <ele>128</ele>
        <time>2020-10-27T22:55:11Z</time>
      </trkpt>
      <trkpt lat="50.56844" lon="4.4919">
        <ele>128</ele>
        <time>2020-10-27T22:55:30Z</time>
      </trkpt>
      <trkpt lat="50.56841" lon="4.49189">
        <ele>127</ele>
        <time>2020-10-27T22:55:33Z</time>
      </trkpt>
    </trkseg>
  </trk>
</gpx>